sensor_id;sensor_type;location;lat;lon;timestamp;temperature;humidity
46488;DHT22;32202;48.780;9.204;2023-01-10T00:01:33;6.60;99.90
46488;DHT22;32202;48.780;9.204;2023-01-10T00:03:59;6.50;99.90
46488;DHT22;32202;48.780;9.204;2023-01-10T00:06:24;6.40;99.90
46488;DHT22;32202;48.780;9.204;2023-01-10T00:08:50;6.40;99.90
46488;DHT22;32202;48.780;9.204;2023-01-10T00:11:15;6.30;99.90
46488;DHT22;32202;48.780;9.204;2023-01-10T00:13:59;6.30;99.90
46488;DHT22;32202;48.780;9.204;2023-01-10T00:16:25;6.30;99.90
46488;DHT22;32202;48.780;9.204;2023-01-10T00:18:50;6.30;99.90
46488;DHT22;32202;48.780;9.204;2023-01-10T00:21:16;6.30;99.90
46488;DHT22;32202;48.780;9.204;2023-01-10T00:23:42;6.30;99.90
46488;DHT22;32202;48.780;9.204;2023-01-10T00:26:09;6.30;99.90
46488;DHT22;32202;48.780;9.204;2023-01-10T00:28:34;6.30;99.90
46488;DHT22;32202;48.780;9.204;2023-01-10T00:31:01;6.30;99.90
46488;DHT22;32202;48.780;9.204;2023-01-10T00:33:40;6.30;99.90
46488;DHT22;32202;48.780;9.204;2023-01-10T00:36:06;6.30;99.90
46488;DHT22;32202;48.780;9.204;2023-01-10T00:38:34;6.30;99.90
46488;DHT22;32202;48.780;9.204;2023-01-10T00:41:03;6.30;99.90
46488;DHT22;32202;48.780;9.204;2023-01-10T00:43:48;6.20;99.90
46488;DHT22;32202;48.780;9.204;2023-01-10T00:46:23;6.20;99.90
46488;DHT22;32202;48.780;9.204;2023-01-10T00:48:49;6.20;99.90
46488;DHT22;32202;48.780;9.204;2023-01-10T00:51:14;6.20;99.90
46488;DHT22;32202;48.780;9.204;2023-01-10T00:53:40;6.20;99.90
46488;DHT22;32202;48.780;9.204;2023-01-10T00:56:05;6.20;99.90
46488;DHT22;32202;48.780;9.204;2023-01-10T00:58:31;6.20;99.90
46488;DHT22;32202;48.780;9.204;2023-01-10T01:00:58;6.20;99.90
46488;DHT22;32202;48.780;9.204;2023-01-10T01:03:23;6.20;99.90
46488;DHT22;32202;48.780;9.204;2023-01-10T01:05:49;6.20;99.90
46488;DHT22;32202;48.780;9.204;2023-01-10T01:08:16;6.20;99.90
46488;DHT22;32202;48.780;9.204;2023-01-10T01:10:42;6.20;99.90
46488;DHT22;32202;48.780;9.204;2023-01-10T01:13:11;6.30;99.90
46488;DHT22;32202;48.780;9.204;2023-01-10T01:15:38;6.30;99.90
46488;DHT22;32202;48.780;9.204;2023-01-10T01:18:04;6.30;99.90
46488;DHT22;32202;48.780;9.204;2023-01-10T01:20:30;6.30;99.90
46488;DHT22;32202;48.780;9.204;2023-01-10T01:22:56;6.30;99.90
46488;DHT22;32202;48.780;9.204;2023-01-10T01:25:22;6.20;99.90
46488;DHT22;32202;48.780;9.204;2023-01-10T01:27:47;6.30;99.90
46488;DHT22;32202;48.780;9.204;2023-01-10T01:30:13;6.30;99.90
46488;DHT22;32202;48.780;9.204;2023-01-10T01:32:39;6.40;99.90
46488;DHT22;32202;48.780;9.204;2023-01-10T01:35:06;6.30;99.90
46488;DHT22;32202;48.780;9.204;2023-01-10T01:37:32;6.30;99.90
46488;DHT22;32202;48.780;9.204;2023-01-10T01:39:58;6.30;99.90
46488;DHT22;32202;48.780;9.204;2023-01-10T01:42:29;6.30;99.90
46488;DHT22;32202;48.780;9.204;2023-01-10T01:47:40;6.30;99.90
46488;DHT22;32202;48.780;9.204;2023-01-10T01:50:20;6.20;99.90
46488;DHT22;32202;48.780;9.204;2023-01-10T01:52:47;6.20;99.90
46488;DHT22;32202;48.780;9.204;2023-01-10T01:55:16;6.30;99.90
46488;DHT22;32202;48.780;9.204;2023-01-10T01:57:42;6.30;99.90
46488;DHT22;32202;48.780;9.204;2023-01-10T02:00:10;6.30;99.90
46488;DHT22;32202;48.780;9.204;2023-01-10T02:02:38;6.40;99.90
46488;DHT22;32202;48.780;9.204;2023-01-10T02:05:08;6.40;99.90
46488;DHT22;32202;48.780;9.204;2023-01-10T02:07:40;6.40;99.90
46488;DHT22;32202;48.780;9.204;2023-01-10T02:10:51;6.40;99.90
46488;DHT22;32202;48.780;9.204;2023-01-10T02:13:19;6.40;99.90
46488;DHT22;32202;48.780;9.204;2023-01-10T02:15:46;6.40;99.90
46488;DHT22;32202;48.780;9.204;2023-01-10T02:18:12;6.40;99.90
46488;DHT22;32202;48.780;9.204;2023-01-10T02:21:05;6.40;99.90
46488;DHT22;32202;48.780;9.204;2023-01-10T02:29:28;6.40;99.90
46488;DHT22;32202;48.780;9.204;2023-01-10T02:35:15;6.30;99.90
46488;DHT22;32202;48.780;9.204;2023-01-10T02:38:01;6.30;99.90
46488;DHT22;32202;48.780;9.204;2023-01-10T02:43:28;6.20;99.90
46488;DHT22;32202;48.780;9.204;2023-01-10T02:46:03;6.10;99.90
46488;DHT22;32202;48.780;9.204;2023-01-10T02:48:29;6.10;99.90
46488;DHT22;32202;48.780;9.204;2023-01-10T02:51:03;6.10;99.90
46488;DHT22;32202;48.780;9.204;2023-01-10T02:53:47;6.10;99.90
46488;DHT22;32202;48.780;9.204;2023-01-10T03:04:15;6.00;99.90
46488;DHT22;32202;48.780;9.204;2023-01-10T03:06:54;6.00;99.90
46488;DHT22;32202;48.780;9.204;2023-01-10T03:09:39;6.00;99.90
46488;DHT22;32202;48.780;9.204;2023-01-10T03:12:26;6.00;99.90
46488;DHT22;32202;48.780;9.204;2023-01-10T03:14:53;6.00;99.90
46488;DHT22;32202;48.780;9.204;2023-01-10T03:17:21;6.00;99.90
46488;DHT22;32202;48.780;9.204;2023-01-10T03:19:50;6.00;99.90
46488;DHT22;32202;48.780;9.204;2023-01-10T03:22:17;5.90;99.90
46488;DHT22;32202;48.780;9.204;2023-01-10T03:24:47;6.00;99.90
46488;DHT22;32202;48.780;9.204;2023-01-10T03:30:00;6.00;99.90
46488;DHT22;32202;48.780;9.204;2023-01-10T03:32:29;6.00;99.90
46488;DHT22;32202;48.780;9.204;2023-01-10T03:34:58;6.00;99.90
46488;DHT22;32202;48.780;9.204;2023-01-10T03:40:16;6.00;99.90
46488;DHT22;32202;48.780;9.204;2023-01-10T03:42:55;6.00;99.90
46488;DHT22;32202;48.780;9.204;2023-01-10T03:45:50;6.00;99.90
46488;DHT22;32202;48.780;9.204;2023-01-10T03:48:19;6.00;99.90
46488;DHT22;32202;48.780;9.204;2023-01-10T03:50:46;6.00;99.90
46488;DHT22;32202;48.780;9.204;2023-01-10T03:53:14;5.90;99.90
46488;DHT22;32202;48.780;9.204;2023-01-10T03:55:41;5.90;99.90
46488;DHT22;32202;48.780;9.204;2023-01-10T03:58:07;5.90;99.90
46488;DHT22;32202;48.780;9.204;2023-01-10T04:00:33;5.90;99.90
46488;DHT22;32202;48.780;9.204;2023-01-10T04:02:59;5.90;99.90
46488;DHT22;32202;48.780;9.204;2023-01-10T04:05:24;5.80;99.90
46488;DHT22;32202;48.780;9.204;2023-01-10T04:07:50;5.80;99.90
46488;DHT22;32202;48.780;9.204;2023-01-10T04:10:16;5.70;99.90
46488;DHT22;32202;48.780;9.204;2023-01-10T04:12:41;5.60;99.90
46488;DHT22;32202;48.780;9.204;2023-01-10T04:15:08;5.60;99.90
46488;DHT22;32202;48.780;9.204;2023-01-10T04:17:33;5.60;99.90
46488;DHT22;32202;48.780;9.204;2023-01-10T04:19:59;5.50;99.90
46488;DHT22;32202;48.780;9.204;2023-01-10T04:22:25;5.40;99.90
46488;DHT22;32202;48.780;9.204;2023-01-10T04:24:51;5.50;99.90
46488;DHT22;32202;48.780;9.204;2023-01-10T04:27:18;5.40;99.90
46488;DHT22;32202;48.780;9.204;2023-01-10T04:29:43;5.40;99.90
46488;DHT22;32202;48.780;9.204;2023-01-10T04:32:09;5.40;99.90
46488;DHT22;32202;48.780;9.204;2023-01-10T04:34:34;5.40;99.90
46488;DHT22;32202;48.780;9.204;2023-01-10T04:37:00;5.40;99.90
46488;DHT22;32202;48.780;9.204;2023-01-10T04:39:25;5.40;99.90
46488;DHT22;32202;48.780;9.204;2023-01-10T04:41:51;5.40;99.90
46488;DHT22;32202;48.780;9.204;2023-01-10T04:44:17;5.40;99.90
46488;DHT22;32202;48.780;9.204;2023-01-10T04:46:42;5.40;99.90
46488;DHT22;32202;48.780;9.204;2023-01-10T04:49:11;5.30;99.90
46488;DHT22;32202;48.780;9.204;2023-01-10T04:51:36;5.30;99.90
46488;DHT22;32202;48.780;9.204;2023-01-10T04:54:02;5.20;99.90
46488;DHT22;32202;48.780;9.204;2023-01-10T04:56:28;5.20;99.90
46488;DHT22;32202;48.780;9.204;2023-01-10T04:58:53;5.20;99.90
46488;DHT22;32202;48.780;9.204;2023-01-10T05:01:21;5.10;99.90
46488;DHT22;32202;48.780;9.204;2023-01-10T05:03:52;5.10;99.90
46488;DHT22;32202;48.780;9.204;2023-01-10T05:06:19;5.10;99.90
46488;DHT22;32202;48.780;9.204;2023-01-10T05:08:45;5.00;99.90
46488;DHT22;32202;48.780;9.204;2023-01-10T05:11:11;5.00;99.90
46488;DHT22;32202;48.780;9.204;2023-01-10T05:13:37;5.00;99.90
46488;DHT22;32202;48.780;9.204;2023-01-10T05:16:03;4.90;99.90
46488;DHT22;32202;48.780;9.204;2023-01-10T05:18:29;4.90;99.90
46488;DHT22;32202;48.780;9.204;2023-01-10T05:21:02;4.90;99.90
46488;DHT22;32202;48.780;9.204;2023-01-10T05:23:28;4.90;99.90
46488;DHT22;32202;48.780;9.204;2023-01-10T05:25:54;5.00;99.90
46488;DHT22;32202;48.780;9.204;2023-01-10T05:28:20;5.10;99.90
46488;DHT22;32202;48.780;9.204;2023-01-10T05:30:45;5.20;99.90
46488;DHT22;32202;48.780;9.204;2023-01-10T05:33:11;5.30;99.90
46488;DHT22;32202;48.780;9.204;2023-01-10T05:35:37;5.30;99.90
46488;DHT22;32202;48.780;9.204;2023-01-10T05:38:02;5.40;99.90
46488;DHT22;32202;48.780;9.204;2023-01-10T05:40:28;5.40;99.90
46488;DHT22;32202;48.780;9.204;2023-01-10T05:42:54;5.40;99.90
46488;DHT22;32202;48.780;9.204;2023-01-10T05:45:20;5.50;99.90
46488;DHT22;32202;48.780;9.204;2023-01-10T05:47:45;5.50;99.90
46488;DHT22;32202;48.780;9.204;2023-01-10T05:50:11;5.60;99.90
46488;DHT22;32202;48.780;9.204;2023-01-10T05:52:36;5.60;99.90
46488;DHT22;32202;48.780;9.204;2023-01-10T05:55:02;5.70;99.90
46488;DHT22;32202;48.780;9.204;2023-01-10T05:57:27;5.70;99.90
46488;DHT22;32202;48.780;9.204;2023-01-10T05:59:53;5.70;99.90
46488;DHT22;32202;48.780;9.204;2023-01-10T06:02:19;5.70;99.90
46488;DHT22;32202;48.780;9.204;2023-01-10T06:04:48;5.70;99.90
46488;DHT22;32202;48.780;9.204;2023-01-10T06:07:13;5.70;99.90
46488;DHT22;32202;48.780;9.204;2023-01-10T06:09:39;5.70;99.90
46488;DHT22;32202;48.780;9.204;2023-01-10T06:12:05;5.70;99.90
46488;DHT22;32202;48.780;9.204;2023-01-10T06:14:30;5.70;99.60
46488;DHT22;32202;48.780;9.204;2023-01-10T06:16:56;5.70;99.60
46488;DHT22;32202;48.780;9.204;2023-01-10T06:19:21;5.70;99.50
46488;DHT22;32202;48.780;9.204;2023-01-10T06:21:47;5.70;99.30
46488;DHT22;32202;48.780;9.204;2023-01-10T06:24:12;5.70;99.20
46488;DHT22;32202;48.780;9.204;2023-01-10T06:26:38;5.70;99.00
46488;DHT22;32202;48.780;9.204;2023-01-10T06:29:03;5.70;99.30
46488;DHT22;32202;48.780;9.204;2023-01-10T06:31:29;5.70;99.20
46488;DHT22;32202;48.780;9.204;2023-01-10T06:33:54;5.70;98.80
46488;DHT22;32202;48.780;9.204;2023-01-10T06:36:20;5.70;98.10
46488;DHT22;32202;48.780;9.204;2023-01-10T06:38:46;5.70;97.70
46488;DHT22;32202;48.780;9.204;2023-01-10T06:41:11;5.80;97.80
46488;DHT22;32202;48.780;9.204;2023-01-10T06:43:45;5.70;97.90
46488;DHT22;32202;48.780;9.204;2023-01-10T06:46:12;5.70;98.10
46488;DHT22;32202;48.780;9.204;2023-01-10T06:48:38;5.80;98.60
46488;DHT22;32202;48.780;9.204;2023-01-10T06:51:04;5.80;98.10
46488;DHT22;32202;48.780;9.204;2023-01-10T06:53:30;5.70;98.10
46488;DHT22;32202;48.780;9.204;2023-01-10T06:55:56;5.70;98.20
46488;DHT22;32202;48.780;9.204;2023-01-10T06:58:22;5.80;98.60
46488;DHT22;32202;48.780;9.204;2023-01-10T07:00:49;5.80;98.40
46488;DHT22;32202;48.780;9.204;2023-01-10T07:03:15;5.80;98.20
46488;DHT22;32202;48.780;9.204;2023-01-10T07:05:40;5.80;98.40
46488;DHT22;32202;48.780;9.204;2023-01-10T07:08:06;5.80;98.10
46488;DHT22;32202;48.780;9.204;2023-01-10T07:10:32;5.90;97.70
46488;DHT22;32202;48.780;9.204;2023-01-10T07:12:57;5.80;97.40
46488;DHT22;32202;48.780;9.204;2023-01-10T07:15:24;5.80;97.40
46488;DHT22;32202;48.780;9.204;2023-01-10T07:17:50;5.80;97.30
46488;DHT22;32202;48.780;9.204;2023-01-10T07:20:16;5.90;97.30
46488;DHT22;32202;48.780;9.204;2023-01-10T07:22:41;5.80;97.20
46488;DHT22;32202;48.780;9.204;2023-01-10T07:25:07;5.90;97.90
46488;DHT22;32202;48.780;9.204;2023-01-10T07:27:33;5.90;97.50
46488;DHT22;32202;48.780;9.204;2023-01-10T07:29:59;5.90;97.30
46488;DHT22;32202;48.780;9.204;2023-01-10T07:32:25;5.90;97.30
46488;DHT22;32202;48.780;9.204;2023-01-10T07:34:51;5.90;96.80
46488;DHT22;32202;48.780;9.204;2023-01-10T07:37:16;5.90;96.80
46488;DHT22;32202;48.780;9.204;2023-01-10T07:39:42;5.90;97.00
46488;DHT22;32202;48.780;9.204;2023-01-10T07:42:11;5.90;96.50
46488;DHT22;32202;48.780;9.204;2023-01-10T07:44:37;5.90;96.30
46488;DHT22;32202;48.780;9.204;2023-01-10T07:47:02;5.90;96.60
46488;DHT22;32202;48.780;9.204;2023-01-10T07:49:28;6.00;97.10
46488;DHT22;32202;48.780;9.204;2023-01-10T07:51:54;6.00;96.60
46488;DHT22;32202;48.780;9.204;2023-01-10T07:54:19;6.10;96.70
46488;DHT22;32202;48.780;9.204;2023-01-10T07:56:46;6.10;96.50
46488;DHT22;32202;48.780;9.204;2023-01-10T07:59:12;6.20;96.80
46488;DHT22;32202;48.780;9.204;2023-01-10T08:01:38;6.20;95.50
46488;DHT22;32202;48.780;9.204;2023-01-10T08:04:04;6.20;95.70
46488;DHT22;32202;48.780;9.204;2023-01-10T08:06:30;6.30;95.60
46488;DHT22;32202;48.780;9.204;2023-01-10T08:08:56;6.30;94.70
46488;DHT22;32202;48.780;9.204;2023-01-10T08:11:22;6.30;94.90
46488;DHT22;32202;48.780;9.204;2023-01-10T08:13:47;6.30;94.90
46488;DHT22;32202;48.780;9.204;2023-01-10T08:16:13;6.30;94.70
46488;DHT22;32202;48.780;9.204;2023-01-10T08:18:40;6.20;94.30
46488;DHT22;32202;48.780;9.204;2023-01-10T08:21:08;6.30;94.60
46488;DHT22;32202;48.780;9.204;2023-01-10T08:23:34;6.30;94.80
46488;DHT22;32202;48.780;9.204;2023-01-10T08:26:00;6.30;94.60
46488;DHT22;32202;48.780;9.204;2023-01-10T08:28:26;6.40;94.80
46488;DHT22;32202;48.780;9.204;2023-01-10T08:30:52;6.40;95.00
46488;DHT22;32202;48.780;9.204;2023-01-10T08:33:23;6.50;94.00
46488;DHT22;32202;48.780;9.204;2023-01-10T08:35:49;6.50;94.20
46488;DHT22;32202;48.780;9.204;2023-01-10T08:38:15;6.50;93.60
46488;DHT22;32202;48.780;9.204;2023-01-10T08:40:41;6.50;93.90
46488;DHT22;32202;48.780;9.204;2023-01-10T08:43:09;6.50;93.40
46488;DHT22;32202;48.780;9.204;2023-01-10T08:45:35;6.60;93.70
46488;DHT22;32202;48.780;9.204;2023-01-10T08:48:05;6.60;93.00
46488;DHT22;32202;48.780;9.204;2023-01-10T08:50:31;6.70;93.20
46488;DHT22;32202;48.780;9.204;2023-01-10T08:52:57;6.90;92.60
46488;DHT22;32202;48.780;9.204;2023-01-10T08:55:24;6.90;92.40
46488;DHT22;32202;48.780;9.204;2023-01-10T08:57:50;7.00;92.50
46488;DHT22;32202;48.780;9.204;2023-01-10T09:00:16;7.10;92.20
46488;DHT22;32202;48.780;9.204;2023-01-10T09:02:41;7.10;91.80
46488;DHT22;32202;48.780;9.204;2023-01-10T09:05:07;7.20;91.80
46488;DHT22;32202;48.780;9.204;2023-01-10T09:07:33;7.30;91.70
46488;DHT22;32202;48.780;9.204;2023-01-10T09:09:59;7.30;91.70
46488;DHT22;32202;48.780;9.204;2023-01-10T09:12:24;7.20;90.80
46488;DHT22;32202;48.780;9.204;2023-01-10T09:15:09;7.20;91.10
46488;DHT22;32202;48.780;9.204;2023-01-10T09:17:34;7.20;91.50
46488;DHT22;32202;48.780;9.204;2023-01-10T09:20:00;7.20;92.00
46488;DHT22;32202;48.780;9.204;2023-01-10T09:22:30;7.30;91.30
46488;DHT22;32202;48.780;9.204;2023-01-10T09:24:56;7.20;91.10
46488;DHT22;32202;48.780;9.204;2023-01-10T09:27:21;7.00;91.60
46488;DHT22;32202;48.780;9.204;2023-01-10T09:29:47;6.90;92.00
46488;DHT22;32202;48.780;9.204;2023-01-10T09:32:12;6.80;92.50
46488;DHT22;32202;48.780;9.204;2023-01-10T09:34:38;6.80;92.80
46488;DHT22;32202;48.780;9.204;2023-01-10T09:37:03;6.80;93.40
46488;DHT22;32202;48.780;9.204;2023-01-10T09:39:29;6.70;93.80
46488;DHT22;32202;48.780;9.204;2023-01-10T09:47:26;6.70;95.70
46488;DHT22;32202;48.780;9.204;2023-01-10T09:50:27;6.90;96.40
46488;DHT22;32202;48.780;9.204;2023-01-10T09:53:18;7.20;95.40
46488;DHT22;32202;48.780;9.204;2023-01-10T09:55:52;7.60;93.70
46488;DHT22;32202;48.780;9.204;2023-01-10T09:58:19;7.80;92.90
46488;DHT22;32202;48.780;9.204;2023-01-10T10:00:57;7.90;92.50
46488;DHT22;32202;48.780;9.204;2023-01-10T10:06:26;7.70;92.70
46488;DHT22;32202;48.780;9.204;2023-01-10T10:08:52;7.60;93.10
46488;DHT22;32202;48.780;9.204;2023-01-10T10:14:15;7.70;93.70
46488;DHT22;32202;48.780;9.204;2023-01-10T10:17:14;7.90;93.60
46488;DHT22;32202;48.780;9.204;2023-01-10T10:36:56;9.30;85.90
46488;DHT22;32202;48.780;9.204;2023-01-10T10:42:37;9.40;82.90
46488;DHT22;32202;48.780;9.204;2023-01-10T10:47:55;9.00;85.60
46488;DHT22;32202;48.780;9.204;2023-01-10T10:52:47;8.60;90.00
46488;DHT22;32202;48.780;9.204;2023-01-10T10:55:26;9.30;90.00
46488;DHT22;32202;48.780;9.204;2023-01-10T10:57:53;10.30;84.50
46488;DHT22;32202;48.780;9.204;2023-01-10T11:00:20;11.10;79.90
46488;DHT22;32202;48.780;9.204;2023-01-10T11:03:12;11.50;76.30
46488;DHT22;32202;48.780;9.204;2023-01-10T11:05:42;11.80;74.20
46488;DHT22;32202;48.780;9.204;2023-01-10T11:08:10;11.80;74.20
46488;DHT22;32202;48.780;9.204;2023-01-10T11:10:38;11.50;74.90
46488;DHT22;32202;48.780;9.204;2023-01-10T11:15:42;10.50;76.70
46488;DHT22;32202;48.780;9.204;2023-01-10T11:18:14;10.00;77.70
46488;DHT22;32202;48.780;9.204;2023-01-10T11:20:51;9.70;79.70
46488;DHT22;32202;48.780;9.204;2023-01-10T11:23:42;9.60;80.50
46488;DHT22;32202;48.780;9.204;2023-01-10T11:26:26;9.50;83.00
46488;DHT22;32202;48.780;9.204;2023-01-10T11:29:06;9.50;82.40
46488;DHT22;32202;48.780;9.204;2023-01-10T11:31:34;9.40;82.20
46488;DHT22;32202;48.780;9.204;2023-01-10T11:34:04;9.30;81.80
46488;DHT22;32202;48.780;9.204;2023-01-10T11:36:54;9.40;82.70
46488;DHT22;32202;48.780;9.204;2023-01-10T11:39:21;9.70;82.40
46488;DHT22;32202;48.780;9.204;2023-01-10T11:41:46;9.90;80.50
46488;DHT22;32202;48.780;9.204;2023-01-10T11:44:22;9.90;79.30
46488;DHT22;32202;48.780;9.204;2023-01-10T11:46:49;9.70;79.40
46488;DHT22;32202;48.780;9.204;2023-01-10T11:49:38;9.60;79.70
46488;DHT22;32202;48.780;9.204;2023-01-10T11:52:23;9.50;79.50
46488;DHT22;32202;48.780;9.204;2023-01-10T11:54:51;9.20;80.30
46488;DHT22;32202;48.780;9.204;2023-01-10T11:57:21;9.10;81.70
46488;DHT22;32202;48.780;9.204;2023-01-10T12:02:34;9.20;83.60
46488;DHT22;32202;48.780;9.204;2023-01-10T12:05:04;9.50;82.70
46488;DHT22;32202;48.780;9.204;2023-01-10T12:10:24;10.60;76.00
46488;DHT22;32202;48.780;9.204;2023-01-10T12:12:55;10.70;74.30
46488;DHT22;32202;48.780;9.204;2023-01-10T12:15:26;10.80;74.80
46488;DHT22;32202;48.780;9.204;2023-01-10T12:17:54;10.90;74.00
46488;DHT22;32202;48.780;9.204;2023-01-10T12:20:21;11.10;72.10
46488;DHT22;32202;48.780;9.204;2023-01-10T12:22:52;11.50;69.20
46488;DHT22;32202;48.780;9.204;2023-01-10T12:25:31;12.00;68.60
46488;DHT22;32202;48.780;9.204;2023-01-10T12:27:57;13.30;65.60
46488;DHT22;32202;48.780;9.204;2023-01-10T12:30:35;13.40;62.90
46488;DHT22;32202;48.780;9.204;2023-01-10T12:33:10;13.10;63.90
46488;DHT22;32202;48.780;9.204;2023-01-10T12:42:07;11.10;66.80
46488;DHT22;32202;48.780;9.204;2023-01-10T12:47:49;10.20;70.70
46488;DHT22;32202;48.780;9.204;2023-01-10T12:50:23;10.80;70.10
46488;DHT22;32202;48.780;9.204;2023-01-10T12:53:30;12.10;65.80
46488;DHT22;32202;48.780;9.204;2023-01-10T12:55:48;12.00;63.00
46488;DHT22;32202;48.780;9.204;2023-01-10T12:58:21;11.30;62.90
46488;DHT22;32202;48.780;9.204;2023-01-10T13:00:51;10.70;64.00
46488;DHT22;32202;48.780;9.204;2023-01-10T13:03:26;10.30;64.70
46488;DHT22;32202;48.780;9.204;2023-01-10T13:05:53;9.90;65.10
46488;DHT22;32202;48.780;9.204;2023-01-10T13:08:23;9.60;66.20
46488;DHT22;32202;48.780;9.204;2023-01-10T13:10:52;9.50;66.80
46488;DHT22;32202;48.780;9.204;2023-01-10T13:15:56;9.40;67.40
46488;DHT22;32202;48.780;9.204;2023-01-10T13:18:29;9.30;67.90
46488;DHT22;32202;48.780;9.204;2023-01-10T13:21:21;9.40;68.10
46488;DHT22;32202;48.780;9.204;2023-01-10T13:23:49;9.30;67.70
46488;DHT22;32202;48.780;9.204;2023-01-10T13:26:16;9.20;67.10
46488;DHT22;32202;48.780;9.204;2023-01-10T13:28:55;9.00;67.30
46488;DHT22;32202;48.780;9.204;2023-01-10T13:31:32;9.00;68.00
46488;DHT22;32202;48.780;9.204;2023-01-10T13:34:01;8.80;68.10
46488;DHT22;32202;48.780;9.204;2023-01-10T13:36:36;8.80;68.30
46488;DHT22;32202;48.780;9.204;2023-01-10T13:39:04;8.70;68.70
46488;DHT22;32202;48.780;9.204;2023-01-10T13:55:49;9.50;66.80
46488;DHT22;32202;48.780;9.204;2023-01-10T14:01:35;9.60;66.40
46488;DHT22;32202;48.780;9.204;2023-01-10T14:04:55;9.50;66.30
46488;DHT22;32202;48.780;9.204;2023-01-10T14:07:58;9.50;67.00
46488;DHT22;32202;48.780;9.204;2023-01-10T14:10:18;9.40;67.00
46488;DHT22;32202;48.780;9.204;2023-01-10T14:13:02;9.50;67.20
46488;DHT22;32202;48.780;9.204;2023-01-10T14:15:51;9.60;67.20
46488;DHT22;32202;48.780;9.204;2023-01-10T14:18:21;9.80;66.60
46488;DHT22;32202;48.780;9.204;2023-01-10T14:21:08;9.90;66.30
46488;DHT22;32202;48.780;9.204;2023-01-10T14:23:47;10.10;65.20
46488;DHT22;32202;48.780;9.204;2023-01-10T14:26:21;10.10;64.70
46488;DHT22;32202;48.780;9.204;2023-01-10T14:28:48;10.10;64.80
46488;DHT22;32202;48.780;9.204;2023-01-10T14:31:18;10.10;64.50
46488;DHT22;32202;48.780;9.204;2023-01-10T14:33:45;10.00;63.80
46488;DHT22;32202;48.780;9.204;2023-01-10T14:37:12;9.60;64.20
46488;DHT22;32202;48.780;9.204;2023-01-10T14:39:32;9.20;65.00
46488;DHT22;32202;48.780;9.204;2023-01-10T14:42:06;9.00;66.10
46488;DHT22;32202;48.780;9.204;2023-01-10T14:44:53;8.80;66.70
46488;DHT22;32202;48.780;9.204;2023-01-10T14:47:33;8.70;67.60
46488;DHT22;32202;48.780;9.204;2023-01-10T14:49:59;8.60;68.00
46488;DHT22;32202;48.780;9.204;2023-01-10T14:52:31;8.50;68.30
46488;DHT22;32202;48.780;9.204;2023-01-10T14:55:08;8.40;68.70
46488;DHT22;32202;48.780;9.204;2023-01-10T14:57:34;8.30;69.10
46488;DHT22;32202;48.780;9.204;2023-01-10T15:00:12;8.20;69.60
46488;DHT22;32202;48.780;9.204;2023-01-10T15:02:43;8.10;70.30
46488;DHT22;32202;48.780;9.204;2023-01-10T15:05:20;8.00;70.50
46488;DHT22;32202;48.780;9.204;2023-01-10T15:07:46;8.00;71.20
46488;DHT22;32202;48.780;9.204;2023-01-10T15:10:27;7.90;71.70
46488;DHT22;32202;48.780;9.204;2023-01-10T15:12:59;7.70;73.10
46488;DHT22;32202;48.780;9.204;2023-01-10T15:15:33;7.60;73.10
46488;DHT22;32202;48.780;9.204;2023-01-10T15:18:02;7.60;73.50
46488;DHT22;32202;48.780;9.204;2023-01-10T15:20:30;7.40;73.90
46488;DHT22;32202;48.780;9.204;2023-01-10T15:22:58;7.30;73.80
46488;DHT22;32202;48.780;9.204;2023-01-10T15:25:31;7.30;74.10
46488;DHT22;32202;48.780;9.204;2023-01-10T15:28:03;7.20;74.30
46488;DHT22;32202;48.780;9.204;2023-01-10T15:30:34;7.10;74.30
46488;DHT22;32202;48.780;9.204;2023-01-10T15:33:03;7.10;74.80
46488;DHT22;32202;48.780;9.204;2023-01-10T15:35:30;7.10;75.10
46488;DHT22;32202;48.780;9.204;2023-01-10T15:38:01;7.00;75.30
46488;DHT22;32202;48.780;9.204;2023-01-10T15:40:30;7.00;75.50
46488;DHT22;32202;48.780;9.204;2023-01-10T15:43:23;7.00;75.70
46488;DHT22;32202;48.780;9.204;2023-01-10T15:45:49;6.90;76.10
46488;DHT22;32202;48.780;9.204;2023-01-10T15:48:34;6.90;76.40
46488;DHT22;32202;48.780;9.204;2023-01-10T16:04:41;6.60;78.50
46488;DHT22;32202;48.780;9.204;2023-01-10T16:07:18;6.60;78.90
46488;DHT22;32202;48.780;9.204;2023-01-10T16:12:26;6.50;79.40
46488;DHT22;32202;48.780;9.204;2023-01-10T16:15:22;6.50;79.80
46488;DHT22;32202;48.780;9.204;2023-01-10T16:17:49;6.40;80.00
46488;DHT22;32202;48.780;9.204;2023-01-10T16:20:24;6.40;80.30
46488;DHT22;32202;48.780;9.204;2023-01-10T16:22:50;6.30;80.70
46488;DHT22;32202;48.780;9.204;2023-01-10T16:25:19;6.30;80.90
46488;DHT22;32202;48.780;9.204;2023-01-10T16:27:46;6.20;81.10
46488;DHT22;32202;48.780;9.204;2023-01-10T16:30:23;6.20;81.30
46488;DHT22;32202;48.780;9.204;2023-01-10T16:32:50;6.20;81.70
46488;DHT22;32202;48.780;9.204;2023-01-10T16:35:16;6.20;81.10
46488;DHT22;32202;48.780;9.204;2023-01-10T16:37:42;6.10;81.40
46488;DHT22;32202;48.780;9.204;2023-01-10T16:40:28;6.10;81.60
46488;DHT22;32202;48.780;9.204;2023-01-10T16:42:57;6.10;82.00
46488;DHT22;32202;48.780;9.204;2023-01-10T16:45:41;6.10;82.00
46488;DHT22;32202;48.780;9.204;2023-01-10T16:48:08;6.00;82.80
46488;DHT22;32202;48.780;9.204;2023-01-10T16:50:34;6.10;82.20
46488;DHT22;32202;48.780;9.204;2023-01-10T16:53:00;6.10;82.00
46488;DHT22;32202;48.780;9.204;2023-01-10T16:55:47;6.10;82.00
46488;DHT22;32202;48.780;9.204;2023-01-10T16:58:13;6.10;82.20
46488;DHT22;32202;48.780;9.204;2023-01-10T17:00:42;6.10;82.40
46488;DHT22;32202;48.780;9.204;2023-01-10T17:03:12;6.10;82.30
46488;DHT22;32202;48.780;9.204;2023-01-10T17:05:39;6.10;81.80
46488;DHT22;32202;48.780;9.204;2023-01-10T17:08:05;6.10;82.00
46488;DHT22;32202;48.780;9.204;2023-01-10T17:10:33;6.00;82.20
46488;DHT22;32202;48.780;9.204;2023-01-10T17:13:01;6.10;82.30
46488;DHT22;32202;48.780;9.204;2023-01-10T17:15:27;6.10;82.30
46488;DHT22;32202;48.780;9.204;2023-01-10T17:17:53;6.10;82.10
46488;DHT22;32202;48.780;9.204;2023-01-10T17:20:19;6.10;82.00
46488;DHT22;32202;48.780;9.204;2023-01-10T17:22:44;6.10;82.30
46488;DHT22;32202;48.780;9.204;2023-01-10T17:25:13;6.10;81.80
46488;DHT22;32202;48.780;9.204;2023-01-10T17:27:40;6.10;81.80
46488;DHT22;32202;48.780;9.204;2023-01-10T17:30:06;6.10;81.70
46488;DHT22;32202;48.780;9.204;2023-01-10T17:32:33;6.10;81.50
46488;DHT22;32202;48.780;9.204;2023-01-10T17:34:59;6.10;81.40
46488;DHT22;32202;48.780;9.204;2023-01-10T17:37:25;6.10;81.20
46488;DHT22;32202;48.780;9.204;2023-01-10T17:39:50;6.10;80.70
46488;DHT22;32202;48.780;9.204;2023-01-10T17:42:16;6.10;80.10
46488;DHT22;32202;48.780;9.204;2023-01-10T17:44:41;6.10;80.40
46488;DHT22;32202;48.780;9.204;2023-01-10T17:47:07;6.10;80.30
46488;DHT22;32202;48.780;9.204;2023-01-10T17:49:34;6.10;80.20
46488;DHT22;32202;48.780;9.204;2023-01-10T17:52:01;6.10;80.00
46488;DHT22;32202;48.780;9.204;2023-01-10T17:54:27;6.10;79.80
46488;DHT22;32202;48.780;9.204;2023-01-10T17:56:53;6.20;79.90
46488;DHT22;32202;48.780;9.204;2023-01-10T17:59:19;6.10;79.60
46488;DHT22;32202;48.780;9.204;2023-01-10T18:01:46;6.10;79.90